createdAt,value
2019-05-30T00:02:06.048Z,11.00
2019-05-30T00:04:36.079Z,10.90
2019-05-30T00:07:05.898Z,11.00
2019-05-30T00:09:35.766Z,11.00
2019-05-30T00:12:05.525Z,10.90
2019-05-30T00:14:35.504Z,10.90
2019-05-30T00:17:05.470Z,11.00
2019-05-30T00:19:35.266Z,10.90
2019-05-30T00:22:05.584Z,10.90
2019-05-30T00:24:35.578Z,10.90
2019-05-30T00:27:06.647Z,10.90
2019-05-30T00:29:36.618Z,10.90
2019-05-30T00:32:06.431Z,10.90
2019-05-30T00:34:36.370Z,10.90
2019-05-30T00:37:06.453Z,10.90
2019-05-30T00:39:36.383Z,10.90
2019-05-30T00:42:06.301Z,10.90
2019-05-30T00:44:36.405Z,10.80
2019-05-30T00:47:06.503Z,10.80
2019-05-30T00:49:36.511Z,10.80
2019-05-30T00:52:06.887Z,10.80
2019-05-30T00:54:36.920Z,10.70
2019-05-30T00:57:07.050Z,10.70
2019-05-30T00:59:36.968Z,10.70
2019-05-30T01:02:07.096Z,10.60
2019-05-30T01:04:37.091Z,10.60
2019-05-30T01:07:07.215Z,10.50
2019-05-30T01:09:37.291Z,10.50
2019-05-30T01:12:07.407Z,10.50
2019-05-30T01:14:37.681Z,10.50
2019-05-30T01:17:07.562Z,10.50
2019-05-30T01:19:37.553Z,10.50
2019-05-30T01:22:07.715Z,10.50
2019-05-30T01:24:37.755Z,10.40
2019-05-30T01:27:07.731Z,10.50
2019-05-30T01:29:37.649Z,10.50
2019-05-30T01:32:25.587Z,10.40
2019-05-30T01:34:55.616Z,10.50
2019-05-30T01:37:25.899Z,10.40
2019-05-30T01:39:55.961Z,10.40
2019-05-30T01:42:25.953Z,10.40
2019-05-30T01:44:55.860Z,10.40
2019-05-30T01:47:25.771Z,10.40
2019-05-30T01:49:55.585Z,10.30
2019-05-30T01:52:25.593Z,10.30
2019-05-30T01:54:55.463Z,10.30
2019-05-30T01:57:25.542Z,10.30
2019-05-30T01:59:55.396Z,10.30
2019-05-30T02:02:25.468Z,10.30
2019-05-30T02:04:55.377Z,10.30
2019-05-30T02:07:25.325Z,10.30
2019-05-30T02:09:55.191Z,10.30
2019-05-30T02:12:25.029Z,10.30
2019-05-30T02:14:54.884Z,10.30
2019-05-30T02:17:24.729Z,10.30
2019-05-30T02:19:54.528Z,10.30
2019-05-30T02:22:24.847Z,10.40
2019-05-30T02:24:54.875Z,10.30
2019-05-30T02:27:24.786Z,10.30
2019-05-30T02:29:54.558Z,10.20
2019-05-30T02:32:24.500Z,10.20
2019-05-30T02:34:54.520Z,10.20
2019-05-30T02:37:24.347Z,10.20
2019-05-30T02:39:54.181Z,10.10
2019-05-30T02:42:24.008Z,10.10
2019-05-30T02:44:53.851Z,10.00
2019-05-30T02:47:23.635Z,9.90
2019-05-30T02:49:53.389Z,9.90
2019-05-30T02:52:23.233Z,10.00
2019-05-30T02:54:53.065Z,10.00
2019-05-30T02:57:23.057Z,10.00
2019-05-30T02:59:53.068Z,10.10
2019-05-30T03:02:22.960Z,10.00
2019-05-30T03:04:53.020Z,10.00
2019-05-30T03:07:22.886Z,10.10
2019-05-30T03:09:53.153Z,10.10
2019-05-30T03:12:23.561Z,10.10
2019-05-30T03:14:53.753Z,10.10
2019-05-30T03:17:23.504Z,10.10
2019-05-30T03:19:53.390Z,10.10
2019-05-30T03:22:23.175Z,10.10
2019-05-30T03:24:53.032Z,10.00
2019-05-30T03:27:22.861Z,10.00
2019-05-30T03:29:52.681Z,9.90
2019-05-30T03:33:02.678Z,9.90
2019-05-30T03:34:54.235Z,9.70
2019-05-30T03:37:29.407Z,9.70
2019-05-30T03:39:56.059Z,9.70
2019-05-30T03:42:25.858Z,9.70
2019-05-30T03:44:55.789Z,9.70
2019-05-30T03:47:28.802Z,9.70
2019-05-30T03:50:00.613Z,9.90
2019-05-30T03:52:31.012Z,9.90
2019-05-30T03:55:01.398Z,9.90
2019-05-30T03:57:35.964Z,9.90
2019-05-30T04:00:13.614Z,9.90
2019-05-30T04:02:58.446Z,9.90
2019-05-30T04:05:39.404Z,9.90
2019-05-30T04:08:12.388Z,9.80
2019-05-30T04:10:45.315Z,9.70
2019-05-30T04:13:30.724Z,9.70
2019-05-30T04:16:00.535Z,9.80
2019-05-30T04:18:30.328Z,9.90
2019-05-30T04:21:00.241Z,10.00
2019-05-30T04:23:29.998Z,10.00
2019-05-30T04:26:00.793Z,10.10
2019-05-30T04:28:31.234Z,10.10
2019-05-30T04:31:01.085Z,10.10
2019-05-30T04:33:33.477Z,10.20
2019-05-30T04:36:02.799Z,10.20
2019-05-30T04:38:33.182Z,10.20
2019-05-30T04:41:03.310Z,10.20
2019-05-30T04:43:33.307Z,10.20
2019-05-30T04:46:03.238Z,10.30
2019-05-30T04:48:33.102Z,10.30
2019-05-30T04:51:02.992Z,10.30
2019-05-30T04:53:32.830Z,10.40
2019-05-30T04:56:02.841Z,10.40
2019-05-30T04:58:32.850Z,10.40
2019-05-30T05:01:02.802Z,10.50
2019-05-30T05:03:45.026Z,10.50
2019-05-30T05:06:04.416Z,10.60
2019-05-30T05:08:34.432Z,10.60
2019-05-30T05:11:04.254Z,10.60
2019-05-30T05:13:34.097Z,10.70
2019-05-30T05:16:21.425Z,10.80
2019-05-30T05:18:35.673Z,10.90
2019-05-30T05:21:05.450Z,10.90
2019-05-30T05:23:35.251Z,11.00
2019-05-30T05:26:05.420Z,11.10
2019-05-30T05:28:35.248Z,11.20
2019-05-30T05:31:05.005Z,11.30
2019-05-30T05:33:34.890Z,11.30
2019-05-30T05:36:05.039Z,11.40
2019-05-30T05:38:34.888Z,11.50
2019-05-30T05:41:04.924Z,11.60
2019-05-30T05:43:34.722Z,11.70
2019-05-30T05:46:04.632Z,11.90
2019-05-30T05:48:34.481Z,11.90
2019-05-30T05:51:04.378Z,12.10
2019-05-30T05:53:34.403Z,12.30
2019-05-30T05:56:04.174Z,12.40
2019-05-30T05:58:33.973Z,12.50
2019-05-30T06:01:04.642Z,12.60
2019-05-30T06:03:34.419Z,12.80
2019-05-30T06:06:04.281Z,12.90
2019-05-30T06:08:34.234Z,13.10
2019-05-30T06:11:04.049Z,13.20
2019-05-30T06:13:42.442Z,13.30
2019-05-30T06:16:12.545Z,13.40
2019-05-30T06:18:42.500Z,13.50
2019-05-30T06:21:12.279Z,13.60
2019-05-30T06:23:45.464Z,13.70
2019-05-30T06:26:14.050Z,13.70
2019-05-30T06:28:43.881Z,13.80
2019-05-30T06:31:13.901Z,13.90
2019-05-30T06:34:44.176Z,14.00
2019-05-30T06:37:14.437Z,14.10
2019-05-30T06:39:44.420Z,14.20
2019-05-30T06:42:14.278Z,14.30
2019-05-30T06:44:44.294Z,14.40
2019-05-30T06:47:14.770Z,14.40
2019-05-30T06:50:12.454Z,14.50
2019-05-30T06:52:42.404Z,14.60
2019-05-30T06:55:14.399Z,14.70
2019-05-30T06:57:45.343Z,14.70
2019-05-30T07:00:17.297Z,14.90
2019-05-30T07:02:47.616Z,14.90
2019-05-30T07:05:19.015Z,15.10
2019-05-30T07:07:49.565Z,15.10
2019-05-30T07:10:20.717Z,15.20
2019-05-30T07:12:51.579Z,15.40
2019-05-30T07:15:25.041Z,15.50
2019-05-30T07:17:55.252Z,15.60
2019-05-30T07:20:25.622Z,15.70
2019-05-30T07:22:55.493Z,15.80
2019-05-30T07:25:25.759Z,15.90
2019-05-30T07:27:55.632Z,15.90
2019-05-30T07:30:25.893Z,16.10
2019-05-30T07:32:56.020Z,16.20
2019-05-30T07:35:26.045Z,16.30
2019-05-30T07:37:55.997Z,16.50
2019-05-30T07:40:26.600Z,16.60
2019-05-30T07:42:56.880Z,16.80
2019-05-30T07:45:26.847Z,16.90
2019-05-30T07:47:56.939Z,16.90
2019-05-30T07:50:26.835Z,17.00
2019-05-30T07:53:09.537Z,17.10
2019-05-30T07:55:39.415Z,17.10
2019-05-30T07:58:09.353Z,17.20
2019-05-30T08:00:39.556Z,17.30
2019-05-30T08:03:09.621Z,17.30
2019-05-30T08:05:39.561Z,17.30
2019-05-30T08:08:09.500Z,17.40
2019-05-30T08:10:39.437Z,17.50
2019-05-30T08:13:09.537Z,17.70
2019-05-30T08:15:43.962Z,17.80
2019-05-30T08:18:11.364Z,17.90
2019-05-30T08:20:41.495Z,18.00
2019-05-30T08:23:11.434Z,18.10
2019-05-30T08:25:41.466Z,18.10
2019-05-30T08:28:11.629Z,18.20
2019-05-30T08:30:41.795Z,18.40
2019-05-30T08:33:11.672Z,18.50
2019-05-30T08:35:49.091Z,18.60
2019-05-30T08:38:13.502Z,18.50
2019-05-30T08:40:43.726Z,18.50
2019-05-30T08:43:13.938Z,18.60
2019-05-30T08:45:43.978Z,18.70
2019-05-30T08:48:13.977Z,18.90
2019-05-30T08:50:44.794Z,18.90
2019-05-30T08:53:15.702Z,18.90
2019-05-30T08:55:55.786Z,18.90
2019-05-30T08:58:32.465Z,19.00
2019-05-30T09:01:02.326Z,19.10
2019-05-30T09:03:35.835Z,19.20
2019-05-30T09:06:06.678Z,19.30
2019-05-30T09:08:37.949Z,19.30
2019-05-30T09:11:07.916Z,19.30
2019-05-30T09:13:38.872Z,19.40
2019-05-30T09:16:09.015Z,19.50
2019-05-30T09:18:40.244Z,19.60
2019-05-30T09:21:11.749Z,19.70
2019-05-30T09:23:42.264Z,19.80
2019-05-30T09:26:13.474Z,19.90
2019-05-30T09:28:44.252Z,19.90
2019-05-30T09:31:14.971Z,19.90
2019-05-30T09:33:44.929Z,19.90
2019-05-30T09:36:15.114Z,19.90
2019-05-30T09:38:45.476Z,19.90
2019-05-30T09:41:15.535Z,19.80
2019-05-30T09:43:46.446Z,19.90
2019-05-30T09:46:16.522Z,20.00
2019-05-30T09:48:46.777Z,20.00
2019-05-30T09:51:22.669Z,20.00
2019-05-30T09:53:53.353Z,20.00
2019-05-30T09:56:24.163Z,19.90
2019-05-30T09:59:00.343Z,19.70
2019-05-30T10:01:30.818Z,19.60
2019-05-30T10:04:00.908Z,19.60
2019-05-30T10:06:31.093Z,19.50
2019-05-30T10:09:01.200Z,19.40
2019-05-30T10:11:31.382Z,19.40
2019-05-30T10:14:22.141Z,19.30
2019-05-30T10:16:54.962Z,19.30
2019-05-30T10:19:23.985Z,19.30
2019-05-30T10:21:55.454Z,19.30
2019-05-30T10:24:25.858Z,19.30
2019-05-30T10:26:55.818Z,19.20
2019-05-30T10:29:26.191Z,19.10
2019-05-30T10:31:56.960Z,19.00
2019-05-30T10:34:26.980Z,18.80
2019-05-30T10:36:57.271Z,18.80
2019-05-30T10:39:27.260Z,18.80
2019-05-30T10:41:57.754Z,18.80
2019-05-30T10:44:27.870Z,19.00
2019-05-30T10:46:57.769Z,19.10
2019-05-30T10:50:17.740Z,19.30
2019-05-30T10:52:49.297Z,19.40
2019-05-30T10:55:21.181Z,19.30
2019-05-30T10:58:05.186Z,19.40
2019-05-30T11:00:48.981Z,19.50
2019-05-30T11:03:20.752Z,19.60
2019-05-30T11:06:38.824Z,19.70
2019-05-30T11:09:09.317Z,19.80
2019-05-30T11:11:39.699Z,19.80
2019-05-30T11:14:09.867Z,19.80
2019-05-30T11:16:40.043Z,19.90
2019-05-30T11:19:10.188Z,19.90
2019-05-30T11:21:40.438Z,19.90
2019-05-30T11:24:11.377Z,19.80
2019-05-30T11:26:44.396Z,19.70
2019-05-30T11:29:15.509Z,19.30
2019-05-30T11:31:45.632Z,19.30
2019-05-30T11:34:16.475Z,19.30
2019-05-30T11:36:46.512Z,19.30
2019-05-30T11:39:16.863Z,19.30
2019-05-30T11:41:47.004Z,19.30
2019-05-30T11:44:17.149Z,19.40
2019-05-30T11:46:47.744Z,19.30
2019-05-30T11:49:18.061Z,19.30
2019-05-30T11:51:49.585Z,19.40
2019-05-30T11:54:19.695Z,19.40
2019-05-30T11:56:50.228Z,19.60
2019-05-30T11:59:20.283Z,19.70
2019-05-30T12:01:50.296Z,19.60
2019-05-30T12:04:20.169Z,19.60
2019-05-30T12:06:51.165Z,19.70
2019-05-30T12:09:21.434Z,19.80
2019-05-30T12:11:51.317Z,20.00
2019-05-30T12:14:21.598Z,20.10
2019-05-30T12:16:51.760Z,20.20
2019-05-30T12:19:21.884Z,20.30
2019-05-30T12:21:52.019Z,20.20
2019-05-30T12:24:22.959Z,20.20
2019-05-30T12:26:53.850Z,20.30
2019-05-30T12:29:23.685Z,20.30
2019-05-30T12:31:56.123Z,20.20
2019-05-30T12:34:26.627Z,20.10
2019-05-30T12:36:56.823Z,20.10
2019-05-30T12:39:26.955Z,20.10
2019-05-30T12:41:56.925Z,20.20
2019-05-30T12:44:28.461Z,20.10
2019-05-30T12:46:59.189Z,20.20
2019-05-30T12:49:29.330Z,20.30
2019-05-30T12:52:00.496Z,20.30
2019-05-30T12:54:30.582Z,20.30
2019-05-30T12:57:00.702Z,20.40
2019-05-30T12:59:30.892Z,20.40
2019-05-30T13:02:01.270Z,20.40
2019-05-30T13:04:31.507Z,20.40
2019-05-30T13:07:01.553Z,20.40
2019-05-30T13:09:31.640Z,20.30
2019-05-30T13:12:02.607Z,20.20
2019-05-30T13:14:32.594Z,20.20
2019-05-30T13:17:03.822Z,20.20
2019-05-30T13:19:33.955Z,20.20
2019-05-30T13:22:03.836Z,20.20
2019-05-30T13:24:34.488Z,20.30
2019-05-30T13:27:04.393Z,20.30
2019-05-30T13:29:34.289Z,20.30
2019-05-30T13:32:04.602Z,20.30
2019-05-30T13:34:34.556Z,20.40
2019-05-30T13:37:05.096Z,20.40
2019-05-30T13:39:34.952Z,20.40
2019-05-30T13:42:05.840Z,20.50
2019-05-30T13:44:35.979Z,20.50
2019-05-30T13:47:06.697Z,20.60
2019-05-30T13:49:37.043Z,20.60
2019-05-30T13:52:07.363Z,20.70
2019-05-30T13:54:37.506Z,20.70
2019-05-30T13:57:07.855Z,20.70
2019-05-30T13:59:37.822Z,20.70
2019-05-30T14:02:08.172Z,20.80
2019-05-30T14:04:38.281Z,21.00
2019-05-30T14:07:08.490Z,21.20
2019-05-30T14:09:38.369Z,21.30
2019-05-30T14:12:08.712Z,21.20
2019-05-30T14:14:38.651Z,21.00
2019-05-30T14:17:10.861Z,20.90
2019-05-30T14:19:40.343Z,20.80
2019-05-30T14:22:12.431Z,20.60
2019-05-30T14:24:42.271Z,20.60
2019-05-30T14:27:12.289Z,20.60
2019-05-30T14:29:42.193Z,20.70
2019-05-30T14:32:12.136Z,20.70
2019-05-30T14:34:42.152Z,20.70
2019-05-30T14:37:12.637Z,20.70
2019-05-30T14:39:42.546Z,20.70
2019-05-30T14:42:13.272Z,20.70
2019-05-30T14:44:43.278Z,20.60
2019-05-30T14:47:13.428Z,20.60
2019-05-30T14:49:43.277Z,20.60
2019-05-30T14:52:13.431Z,20.60
2019-05-30T14:54:43.396Z,20.70
2019-05-30T14:57:14.149Z,20.70
2019-05-30T14:59:44.050Z,20.60
2019-05-30T15:02:14.236Z,20.60
2019-05-30T15:04:44.133Z,20.60
2019-05-30T15:07:13.948Z,20.60
2019-05-30T15:09:43.822Z,20.60
2019-05-30T15:12:13.673Z,20.60
2019-05-30T15:14:43.664Z,20.70
2019-05-30T15:17:14.306Z,20.70
2019-05-30T15:19:44.288Z,20.70
2019-05-30T15:22:17.097Z,20.70
2019-05-30T15:24:46.260Z,20.70
2019-05-30T15:27:16.362Z,20.70
2019-05-30T15:29:46.356Z,20.80
2019-05-30T15:32:16.618Z,20.80
2019-05-30T15:34:46.496Z,20.90
2019-05-30T15:37:17.023Z,21.00
2019-05-30T15:39:46.856Z,21.00
2019-05-30T15:42:17.734Z,21.00
2019-05-30T15:44:47.706Z,21.00
2019-05-30T15:47:18.465Z,21.00
2019-05-30T15:49:51.994Z,21.00
2019-05-30T15:52:20.316Z,21.00
2019-05-30T15:54:50.135Z,21.10
2019-05-30T15:57:20.032Z,21.00
2019-05-30T15:59:52.119Z,21.00
2019-05-30T16:02:22.048Z,21.00
2019-05-30T16:04:52.081Z,21.00
2019-05-30T16:07:21.894Z,21.00
2019-05-30T16:09:51.719Z,21.00
2019-05-30T16:12:21.684Z,20.90
2019-05-30T16:14:51.645Z,21.00
2019-05-30T16:17:21.862Z,21.00
2019-05-30T16:19:51.907Z,21.00
2019-05-30T16:22:22.671Z,21.00
2019-05-30T16:24:52.622Z,21.00
2019-05-30T16:27:22.500Z,21.00
2019-05-30T16:29:52.432Z,21.00
2019-05-30T16:32:22.255Z,21.10
2019-05-30T16:34:52.173Z,21.20
2019-05-30T16:37:22.320Z,21.20
2019-05-30T16:40:05.494Z,21.20
2019-05-30T16:42:24.759Z,21.20
2019-05-30T16:44:54.848Z,21.10
2019-05-30T16:47:24.843Z,21.10
2019-05-30T16:49:54.696Z,21.10
2019-05-30T16:52:24.973Z,21.20
2019-05-30T16:54:54.847Z,21.20
2019-05-30T16:57:25.008Z,21.20
2019-05-30T16:59:54.854Z,21.30
2019-05-30T17:02:24.875Z,21.30
2019-05-30T17:04:54.800Z,21.30
2019-05-30T17:07:24.713Z,21.10
2019-05-30T17:09:54.569Z,21.00
2019-05-30T17:12:25.743Z,20.80
2019-05-30T17:14:55.720Z,20.80
2019-05-30T17:17:26.203Z,20.70
2019-05-30T17:19:56.322Z,20.80
2019-05-30T17:22:30.203Z,20.80
2019-05-30T17:24:57.954Z,20.70
2019-05-30T17:27:27.915Z,20.70
2019-05-30T17:29:59.057Z,20.70
2019-05-30T17:32:29.072Z,20.70
2019-05-30T17:34:58.903Z,20.70
2019-05-30T17:37:28.749Z,20.70
2019-05-30T17:39:59.050Z,20.60
2019-05-30T17:42:29.114Z,20.70
2019-05-30T17:44:59.141Z,20.60
2019-05-30T17:47:34.085Z,20.50
2019-05-30T17:50:05.057Z,20.50
2019-05-30T17:52:37.538Z,20.50
2019-05-30T17:55:08.749Z,20.40
2019-05-30T17:57:38.757Z,20.40
2019-05-30T18:00:09.424Z,20.30
2019-05-30T18:02:39.502Z,20.30
2019-05-30T18:05:11.212Z,20.30
2019-05-30T18:07:41.053Z,20.20
2019-05-30T18:10:11.934Z,20.20
2019-05-30T18:12:41.909Z,20.20
2019-05-30T18:15:13.164Z,20.10
2019-05-30T18:17:43.814Z,20.10
2019-05-30T18:20:14.447Z,20.00
2019-05-30T18:22:45.102Z,20.00
2019-05-30T18:25:15.927Z,20.00
2019-05-30T18:27:46.205Z,19.90
2019-05-30T18:30:17.129Z,19.90
2019-05-30T18:32:46.991Z,19.90
2019-05-30T18:35:18.421Z,19.90
2019-05-30T18:37:51.342Z,19.90
2019-05-30T18:40:31.486Z,20.00
2019-05-30T18:43:01.574Z,19.90
2019-05-30T18:45:39.992Z,19.90
2019-05-30T18:48:10.896Z,19.90
2019-05-30T18:50:41.017Z,19.80
2019-05-30T18:53:10.620Z,19.80
2019-05-30T18:55:40.763Z,19.80
2019-05-30T18:58:11.672Z,19.80
2019-05-30T19:00:43.366Z,19.70
2019-05-30T19:03:13.607Z,19.70
2019-05-30T19:05:43.719Z,19.60
2019-05-30T19:08:13.697Z,19.60
2019-05-30T19:10:43.785Z,19.60
2019-05-30T19:13:14.039Z,19.50
2019-05-30T19:15:44.210Z,19.50
2019-05-30T19:18:14.960Z,19.50
2019-05-30T19:20:56.552Z,19.50
2019-05-30T19:23:27.923Z,19.50
2019-05-30T19:25:58.161Z,19.50
2019-05-30T19:28:28.530Z,19.40
2019-05-30T19:30:58.675Z,19.40
2019-05-30T19:33:28.884Z,19.50
2019-05-30T19:35:58.592Z,19.50
2019-05-30T19:38:29.451Z,19.50
2019-05-30T19:40:59.638Z,19.40
2019-05-30T19:43:30.015Z,19.40
2019-05-30T19:45:59.956Z,19.50
2019-05-30T19:48:30.271Z,19.50
2019-05-30T19:51:00.512Z,19.50
2019-05-30T19:53:30.822Z,19.60
2019-05-30T19:56:01.363Z,19.60
2019-05-30T19:58:31.625Z,19.50
2019-05-30T20:01:01.534Z,19.50
2019-05-30T20:03:37.513Z,19.50
2019-05-30T20:06:03.362Z,19.50
2019-05-30T20:08:46.983Z,19.50
2019-05-30T20:11:05.664Z,19.50
2019-05-30T20:13:37.181Z,19.50
2019-05-30T20:16:07.280Z,19.50
2019-05-30T20:18:37.689Z,19.50
2019-05-30T20:21:07.729Z,19.50
2019-05-30T20:23:52.910Z,19.50
2019-05-30T20:26:12.405Z,19.40
2019-05-30T20:28:42.985Z,19.40
2019-05-30T20:31:13.162Z,19.30
2019-05-30T20:33:43.047Z,19.30
2019-05-30T20:36:12.965Z,19.30
2019-05-30T20:38:43.014Z,19.20
2019-05-30T20:41:12.899Z,19.10
2019-05-30T20:43:43.338Z,19.10
2019-05-30T20:46:22.729Z,19.10
2019-05-30T20:48:45.466Z,19.00
2019-05-30T20:51:21.044Z,19.00
2019-05-30T20:53:47.747Z,19.00
2019-05-30T20:56:17.906Z,18.90
2019-05-30T20:58:47.934Z,18.90
2019-05-30T21:01:17.973Z,18.90
2019-05-30T21:03:48.061Z,18.90
2019-05-30T21:06:18.343Z,18.90
2019-05-30T21:08:51.291Z,18.80
2019-05-30T21:11:21.507Z,18.70
2019-05-30T21:13:53.414Z,18.70
2019-05-30T21:16:23.423Z,18.60
2019-05-30T21:18:54.332Z,18.60
2019-05-30T21:21:24.470Z,18.50
2019-05-30T21:23:54.617Z,18.50
2019-05-30T21:26:24.542Z,18.50
2019-05-30T21:28:56.202Z,18.40
2019-05-30T21:31:26.136Z,18.50
2019-05-30T21:33:56.225Z,18.50
2019-05-30T21:36:27.000Z,18.40
2019-05-30T21:38:57.254Z,18.40
2019-05-30T21:41:27.175Z,18.40
2019-05-30T21:43:57.276Z,18.40
2019-05-30T21:46:27.170Z,18.40
2019-05-30T21:48:57.181Z,18.30
2019-05-30T21:51:27.223Z,18.20
2019-05-30T21:53:57.200Z,18.20
2019-05-30T21:56:27.236Z,18.20
2019-05-30T21:58:57.220Z,18.20
2019-05-30T22:01:36.681Z,18.10
2019-05-30T22:04:07.165Z,18.10
2019-05-30T22:06:37.038Z,18.10
2019-05-30T22:09:09.915Z,18.10
2019-05-30T22:11:41.595Z,18.10
2019-05-30T22:14:11.869Z,18.10
2019-05-30T22:16:41.954Z,18.00
2019-05-30T22:19:11.950Z,18.00
2019-05-30T22:21:42.129Z,18.00
2019-05-30T22:24:12.269Z,18.00
2019-05-30T22:26:42.475Z,18.00
2019-05-30T22:29:12.642Z,18.00
2019-05-30T22:31:42.763Z,18.00
2019-05-30T22:34:12.773Z,18.00
2019-05-30T22:36:42.785Z,18.00
2019-05-30T22:39:12.678Z,17.90
2019-05-30T22:41:43.795Z,17.90
2019-05-30T22:44:13.852Z,17.90
2019-05-30T22:46:44.123Z,17.90
2019-05-30T22:49:14.054Z,17.90
2019-05-30T22:51:44.980Z,17.80
2019-05-30T22:54:14.972Z,17.80
2019-05-30T22:56:45.755Z,17.80
2019-05-30T22:59:15.639Z,17.90
2019-05-30T23:01:46.820Z,17.90
2019-05-30T23:04:16.756Z,17.90
2019-05-30T23:06:46.630Z,17.90
2019-05-30T23:09:16.557Z,17.80
2019-05-30T23:11:47.605Z,17.80
2019-05-30T23:14:17.592Z,17.80
2019-05-30T23:16:48.197Z,17.70
2019-05-30T23:19:18.411Z,17.70
2019-05-30T23:24:26.085Z,17.60
2019-05-30T23:26:57.856Z,17.60
2019-05-30T23:29:28.135Z,17.60
2019-05-30T23:32:00.036Z,17.50
2019-05-30T23:34:30.419Z,17.50
2019-05-30T23:37:05.178Z,17.50
2019-05-30T23:39:35.534Z,17.50
2019-05-30T23:42:06.404Z,17.50
2019-05-30T23:44:37.367Z,17.50
2019-05-30T23:47:09.138Z,17.40
2019-05-30T23:49:39.389Z,17.40
2019-05-30T23:52:09.408Z,17.40
2019-05-30T23:54:39.213Z,17.40
2019-05-30T23:57:10.075Z,17.40
2019-05-30T23:59:41.063Z,17.40
